sensor_id;sensor_type;location;lat;lon;timestamp;pressure;altitude;pressure_sealevel;temperature;humidity
78170;BME280;67412;49.892;14.490;2024-03-06T00:01:32;97191.56;;;5.54;100.00
78170;BME280;67412;49.892;14.490;2024-03-06T00:03:58;97188.16;;;5.52;100.00
78170;BME280;67412;49.892;14.490;2024-03-06T00:06:23;97190.69;;;5.52;100.00
78170;BME280;67412;49.892;14.490;2024-03-06T00:08:49;97191.53;;;5.51;100.00
78170;BME280;67412;49.892;14.490;2024-03-06T00:11:15;97186.47;;;5.53;100.00
78170;BME280;67412;49.892;14.490;2024-03-06T00:13:40;97197.50;;;5.56;100.00
78170;BME280;67412;49.892;14.490;2024-03-06T00:16:06;97195.78;;;5.52;100.00
78170;BME280;67412;49.892;14.490;2024-03-06T00:18:31;97197.47;;;5.49;100.00
78170;BME280;67412;49.892;14.490;2024-03-06T00:20:56;97196.59;;;5.44;100.00
78170;BME280;67412;49.892;14.490;2024-03-06T00:23:22;97197.47;;;5.46;100.00
78170;BME280;67412;49.892;14.490;2024-03-06T00:25:47;97199.19;;;5.51;100.00
78170;BME280;67412;49.892;14.490;2024-03-06T00:28:12;97200.03;;;5.47;100.00
78170;BME280;67412;49.892;14.490;2024-03-06T00:30:37;97206.81;;;5.51;100.00
78170;BME280;67412;49.892;14.490;2024-03-06T00:33:03;97208.53;;;5.52;100.00
78170;BME280;67412;49.892;14.490;2024-03-06T00:35:28;97218.75;;;5.57;100.00
78170;BME280;67412;49.892;14.490;2024-03-06T00:37:54;97210.25;;;5.56;100.00
78170;BME280;67412;49.892;14.490;2024-03-06T00:40:19;97213.63;;;5.52;100.00
78170;BME280;67412;49.892;14.490;2024-03-06T00:42:45;97209.41;;;5.54;100.00
78170;BME280;67412;49.892;14.490;2024-03-06T00:45:10;97217.91;;;5.56;100.00
78170;BME280;67412;49.892;14.490;2024-03-06T00:47:36;97217.06;;;5.57;100.00
78170;BME280;67412;49.892;14.490;2024-03-06T00:50:02;97217.91;;;5.55;100.00
78170;BME280;67412;49.892;14.490;2024-03-06T00:52:28;97214.47;;;5.51;100.00
78170;BME280;67412;49.892;14.490;2024-03-06T00:54:53;97217.03;;;5.53;100.00
78170;BME280;67412;49.892;14.490;2024-03-06T00:57:19;97213.63;;;5.49;100.00
78170;BME280;67412;49.892;14.490;2024-03-06T00:59:44;97214.47;;;5.53;100.00
78170;BME280;67412;49.892;14.490;2024-03-06T01:02:09;97223.81;;;5.49;100.00
78170;BME280;67412;49.892;14.490;2024-03-06T01:04:35;97217.03;;;5.53;100.00
78170;BME280;67412;49.892;14.490;2024-03-06T01:07:00;97217.88;;;5.49;100.00
78170;BME280;67412;49.892;14.490;2024-03-06T01:09:26;97217.00;;;5.45;100.00
78170;BME280;67412;49.892;14.490;2024-03-06T01:11:52;97211.91;;;5.48;100.00
78170;BME280;67412;49.892;14.490;2024-03-06T01:14:17;97207.66;;;5.44;100.00
78170;BME280;67412;49.892;14.490;2024-03-06T01:16:43;97212.75;;;5.44;100.00
78170;BME280;67412;49.892;14.490;2024-03-06T01:19:08;97222.94;;;5.46;100.00
78170;BME280;67412;49.892;14.490;2024-03-06T01:21:33;97220.41;;;5.49;100.00
78170;BME280;67412;49.892;14.490;2024-03-06T01:24:00;97222.13;;;5.50;100.00
78170;BME280;67412;49.892;14.490;2024-03-06T01:26:25;97220.44;;;5.50;100.00
78170;BME280;67412;49.892;14.490;2024-03-06T01:28:51;97224.66;;;5.47;100.00
78170;BME280;67412;49.892;14.490;2024-03-06T01:31:17;97222.09;;;5.48;100.00
78170;BME280;67412;49.892;14.490;2024-03-06T01:33:42;97228.06;;;5.52;100.00
78170;BME280;67412;49.892;14.490;2024-03-06T01:36:07;97226.38;;;5.54;100.00
78170;BME280;67412;49.892;14.490;2024-03-06T01:38:33;97229.78;;;5.53;100.00
78170;BME280;67412;49.892;14.490;2024-03-06T01:40:58;97218.72;;;5.52;100.00
78170;BME280;67412;49.892;14.490;2024-03-06T01:43:25;97220.44;;;5.53;100.00
78170;BME280;67412;49.892;14.490;2024-03-06T01:45:51;97222.13;;;5.56;100.00
78170;BME280;67412;49.892;14.490;2024-03-06T01:48:20;97230.63;;;5.56;100.00
78170;BME280;67412;49.892;14.490;2024-03-06T01:50:47;97221.28;;;5.57;100.00
78170;BME280;67412;49.892;14.490;2024-03-06T01:53:13;97225.53;;;5.56;100.00
78170;BME280;67412;49.892;14.490;2024-03-06T01:55:40;97225.53;;;5.56;100.00
78170;BME280;67412;49.892;14.490;2024-03-06T01:58:05;97227.22;;;5.53;100.00
78170;BME280;67412;49.892;14.490;2024-03-06T02:00:32;97232.34;;;5.54;100.00
78170;BME280;67412;49.892;14.490;2024-03-06T02:02:59;97235.72;;;5.56;100.00
78170;BME280;67412;49.892;14.490;2024-03-06T02:05:24;97234.88;;;5.56;100.00
78170;BME280;67412;49.892;14.490;2024-03-06T02:07:50;97229.78;;;5.53;100.00
78170;BME280;67412;49.892;14.490;2024-03-06T02:10:18;97225.53;;;5.50;100.00
78170;BME280;67412;49.892;14.490;2024-03-06T02:12:44;97228.91;;;5.49;100.00
78170;BME280;67412;49.892;14.490;2024-03-06T02:15:10;97234.00;;;5.49;100.00
78170;BME280;67412;49.892;14.490;2024-03-06T02:17:37;97225.50;;;5.43;100.00
78170;BME280;67412;49.892;14.490;2024-03-06T02:20:03;97225.53;;;5.47;100.00
78170;BME280;67412;49.892;14.490;2024-03-06T02:22:31;97232.28;;;5.45;100.00
78170;BME280;67412;49.892;14.490;2024-03-06T02:24:56;97227.19;;;5.39;100.00
78170;BME280;67412;49.892;14.490;2024-03-06T02:27:22;97237.34;;;5.41;100.00
78170;BME280;67412;49.892;14.490;2024-03-06T02:29:47;97239.06;;;5.45;100.00
78170;BME280;67412;49.892;14.490;2024-03-06T02:32:13;97230.56;;;5.44;100.00
78170;BME280;67412;49.892;14.490;2024-03-06T02:34:39;97228.84;;;5.35;100.00
78170;BME280;67412;49.892;14.490;2024-03-06T02:37:05;97237.38;;;5.45;100.00
78170;BME280;67412;49.892;14.490;2024-03-06T02:39:31;97239.09;;;5.43;100.00
78170;BME280;67412;49.892;14.490;2024-03-06T02:41:57;97243.34;;;5.46;100.00
78170;BME280;67412;49.892;14.490;2024-03-06T02:44:23;97240.75;;;5.44;100.00
78170;BME280;67412;49.892;14.490;2024-03-06T02:46:50;97247.56;;;5.48;100.00
78170;BME280;67412;49.892;14.490;2024-03-06T02:49:16;97247.56;;;5.45;100.00
78170;BME280;67412;49.892;14.490;2024-03-06T02:51:42;97251.84;;;5.49;100.00
78170;BME280;67412;49.892;14.490;2024-03-06T02:54:08;97259.47;;;5.43;100.00
78170;BME280;67412;49.892;14.490;2024-03-06T02:56:33;97252.63;;;5.36;100.00
78170;BME280;67412;49.892;14.490;2024-03-06T02:58:58;97252.63;;;5.36;100.00
78170;BME280;67412;49.892;14.490;2024-03-06T03:01:24;97250.94;;;5.35;100.00
78170;BME280;67412;49.892;14.490;2024-03-06T03:03:49;97256.03;;;5.38;100.00
78170;BME280;67412;49.892;14.490;2024-03-06T03:06:16;97250.94;;;5.41;100.00
78170;BME280;67412;49.892;14.490;2024-03-06T03:08:41;97252.66;;;5.44;100.00
78170;BME280;67412;49.892;14.490;2024-03-06T03:11:07;97255.19;;;5.44;100.00
78170;BME280;67412;49.892;14.490;2024-03-06T03:13:33;97256.03;;;5.44;100.00
78170;BME280;67412;49.892;14.490;2024-03-06T03:15:58;97255.19;;;5.39;100.00
78170;BME280;67412;49.892;14.490;2024-03-06T03:18:23;97255.97;;;5.29;100.00
78170;BME280;67412;49.892;14.490;2024-03-06T03:20:49;97261.88;;;5.25;100.00
78170;BME280;67412;49.892;14.490;2024-03-06T03:23:14;97258.47;;;5.20;100.00
78170;BME280;67412;49.892;14.490;2024-03-06T03:25:43;97258.44;;;5.15;100.00
78170;BME280;67412;49.892;14.490;2024-03-06T03:28:08;97266.13;;;5.17;100.00
78170;BME280;67412;49.892;14.490;2024-03-06T03:30:35;97264.38;;;5.10;100.00
78170;BME280;67412;49.892;14.490;2024-03-06T03:33:00;97268.56;;;5.06;100.00
78170;BME280;67412;49.892;14.490;2024-03-06T03:35:25;97266.88;;;5.05;100.00
78170;BME280;67412;49.892;14.490;2024-03-06T03:37:51;97267.69;;;5.00;100.00
78170;BME280;67412;49.892;14.490;2024-03-06T03:40:17;97276.16;;;4.99;100.00
78170;BME280;67412;49.892;14.490;2024-03-06T03:42:43;97276.13;;;4.93;100.00
78170;BME280;67412;49.892;14.490;2024-03-06T03:45:09;97271.06;;;4.99;100.00
78170;BME280;67412;49.892;14.490;2024-03-06T03:47:34;97280.41;;;4.97;100.00
78170;BME280;67412;49.892;14.490;2024-03-06T03:49:59;97275.31;;;5.00;100.00
78170;BME280;67412;49.892;14.490;2024-03-06T03:52:25;97273.66;;;5.02;100.00
78170;BME280;67412;49.892;14.490;2024-03-06T03:54:50;97274.50;;;5.04;100.00
78170;BME280;67412;49.892;14.490;2024-03-06T03:57:15;97271.09;;;5.02;100.00
78170;BME280;67412;49.892;14.490;2024-03-06T03:59:42;97273.66;;;5.03;100.00
78170;BME280;67412;49.892;14.490;2024-03-06T04:02:08;97277.91;;;5.07;100.00
78170;BME280;67412;49.892;14.490;2024-03-06T04:04:34;97282.97;;;5.03;100.00
78170;BME280;67412;49.892;14.490;2024-03-06T04:07:00;97287.19;;;4.96;100.00
78170;BME280;67412;49.892;14.490;2024-03-06T04:09:27;97287.19;;;4.96;100.00
78170;BME280;67412;49.892;14.490;2024-03-06T04:11:52;97288.88;;;4.94;100.00
78170;BME280;67412;49.892;14.490;2024-03-06T04:14:18;97283.72;;;4.88;100.00
78170;BME280;67412;49.892;14.490;2024-03-06T04:16:45;97282.03;;;4.88;100.00
78170;BME280;67412;49.892;14.490;2024-03-06T04:19:11;97282.03;;;4.92;100.00
78170;BME280;67412;49.892;14.490;2024-03-06T04:21:43;97283.78;;;4.96;100.00
78170;BME280;67412;49.892;14.490;2024-03-06T04:24:09;97278.75;;;5.06;100.00
78170;BME280;67412;49.892;14.490;2024-03-06T04:26:35;97279.59;;;5.04;100.00
78170;BME280;67412;49.892;14.490;2024-03-06T04:29:00;97280.47;;;5.06;100.00
78170;BME280;67412;49.892;14.490;2024-03-06T04:31:25;97276.22;;;5.05;100.00
78170;BME280;67412;49.892;14.490;2024-03-06T04:33:51;97278.75;;;5.05;100.00
78170;BME280;67412;49.892;14.490;2024-03-06T04:36:16;97280.44;;;5.01;100.00
78170;BME280;67412;49.892;14.490;2024-03-06T04:38:42;97286.41;;;5.08;100.00
78170;BME280;67412;49.892;14.490;2024-03-06T04:41:07;97287.28;;;5.10;100.00
78170;BME280;67412;49.892;14.490;2024-03-06T04:43:33;97294.88;;;5.05;100.00
78170;BME280;67412;49.892;14.490;2024-03-06T04:45:58;97285.56;;;5.07;100.00
78170;BME280;67412;49.892;14.490;2024-03-06T04:48:24;97299.16;;;5.09;100.00
78170;BME280;67412;49.892;14.490;2024-03-06T04:50:49;97301.66;;;5.05;100.00
78170;BME280;67412;49.892;14.490;2024-03-06T04:53:15;97305.88;;;4.98;100.00
78170;BME280;67412;49.892;14.490;2024-03-06T04:55:40;97300.72;;;4.95;100.00
78170;BME280;67412;49.892;14.490;2024-03-06T04:58:06;97301.63;;;4.97;100.00
78170;BME280;67412;49.892;14.490;2024-03-06T05:00:32;97304.97;;;4.93;100.00
78170;BME280;67412;49.892;14.490;2024-03-06T05:02:57;97302.41;;;4.90;100.00
78170;BME280;67412;49.892;14.490;2024-03-06T05:05:22;97304.94;;;4.92;100.00
78170;BME280;67412;49.892;14.490;2024-03-06T05:07:48;97294.75;;;4.88;100.00
78170;BME280;67412;49.892;14.490;2024-03-06T05:10:14;97301.53;;;4.83;100.00
78170;BME280;67412;49.892;14.490;2024-03-06T05:12:40;97302.34;;;4.84;100.00
78170;BME280;67412;49.892;14.490;2024-03-06T05:15:06;97304.91;;;4.85;100.00
78170;BME280;67412;49.892;14.490;2024-03-06T05:17:33;97310.84;;;4.87;100.00
78170;BME280;67412;49.892;14.490;2024-03-06T05:19:59;97308.34;;;4.89;100.00
78170;BME280;67412;49.892;14.490;2024-03-06T05:22:24;97316.84;;;4.93;100.00
78170;BME280;67412;49.892;14.490;2024-03-06T05:24:51;97311.78;;;4.94;100.00
78170;BME280;67412;49.892;14.490;2024-03-06T05:27:17;97307.53;;;4.96;100.00
78170;BME280;67412;49.892;14.490;2024-03-06T05:29:43;97315.13;;;4.90;100.00
78170;BME280;67412;49.892;14.490;2024-03-06T05:32:09;97318.56;;;4.94;100.00
78170;BME280;67412;49.892;14.490;2024-03-06T05:34:34;97315.19;;;4.98;100.00
78170;BME280;67412;49.892;14.490;2024-03-06T05:37:00;97320.28;;;4.98;100.00
78170;BME280;67412;49.892;14.490;2024-03-06T05:39:29;97325.41;;;5.01;100.00
78170;BME280;67412;49.892;14.490;2024-03-06T05:41:55;97324.53;;;4.97;100.00
78170;BME280;67412;49.892;14.490;2024-03-06T05:44:24;97327.03;;;4.93;100.00
78170;BME280;67412;49.892;14.490;2024-03-06T05:46:50;97333.75;;;4.87;100.00
78170;BME280;67412;49.892;14.490;2024-03-06T05:49:15;97336.34;;;4.89;100.00
78170;BME280;67412;49.892;14.490;2024-03-06T05:51:41;97336.38;;;4.94;100.00
78170;BME280;67412;49.892;14.490;2024-03-06T05:54:06;97334.66;;;4.90;100.00
78170;BME280;67412;49.892;14.490;2024-03-06T05:56:33;97343.13;;;4.90;100.00
78170;BME280;67412;49.892;14.490;2024-03-06T05:58:59;97343.13;;;4.92;100.00
78170;BME280;67412;49.892;14.490;2024-03-06T06:01:26;97344.00;;;4.94;100.00
78170;BME280;67412;49.892;14.490;2024-03-06T06:03:52;97344.88;;;4.94;100.00
78170;BME280;67412;49.892;14.490;2024-03-06T06:06:17;97352.56;;;5.02;100.00
78170;BME280;67412;49.892;14.490;2024-03-06T06:08:44;97351.75;;;5.06;100.00
78170;BME280;67412;49.892;14.490;2024-03-06T06:11:10;97359.38;;;5.07;100.00
78170;BME280;67412;49.892;14.490;2024-03-06T06:13:36;97358.56;;;5.08;100.00
78170;BME280;67412;49.892;14.490;2024-03-06T06:16:01;97361.13;;;5.13;100.00
78170;BME280;67412;49.892;14.490;2024-03-06T06:18:28;97359.44;;;5.12;100.00
78170;BME280;67412;49.892;14.490;2024-03-06T06:20:53;97367.97;;;5.17;100.00
78170;BME280;67412;49.892;14.490;2024-03-06T06:23:19;97369.69;;;5.21;100.00
78170;BME280;67412;49.892;14.490;2024-03-06T06:25:44;97373.94;;;5.25;100.00
78170;BME280;67412;49.892;14.490;2024-03-06T06:28:11;97366.38;;;5.31;100.00
78170;BME280;67412;49.892;14.490;2024-03-06T06:30:36;97369.75;;;5.33;100.00
78170;BME280;67412;49.892;14.490;2024-03-06T06:33:03;97374.91;;;5.36;100.00
78170;BME280;67412;49.892;14.490;2024-03-06T06:35:29;97378.25;;;5.33;100.00
78170;BME280;67412;49.892;14.490;2024-03-06T06:37:55;97380.81;;;5.36;100.00
78170;BME280;67412;49.892;14.490;2024-03-06T06:40:20;97381.69;;;5.40;100.00
78170;BME280;67412;49.892;14.490;2024-03-06T06:42:47;97388.50;;;5.44;100.00
78170;BME280;67412;49.892;14.490;2024-03-06T06:45:15;97383.47;;;5.47;100.00
78170;BME280;67412;49.892;14.490;2024-03-06T06:47:41;97386.03;;;5.53;100.00
78170;BME280;67412;49.892;14.490;2024-03-06T06:50:06;97383.47;;;5.50;100.00
78170;BME280;67412;49.892;14.490;2024-03-06T06:52:34;97386.06;;;5.58;100.00
78170;BME280;67412;49.892;14.490;2024-03-06T06:54:59;97384.41;;;5.64;100.00
78170;BME280;67412;49.892;14.490;2024-03-06T06:57:25;97386.13;;;5.68;100.00
78170;BME280;67412;49.892;14.490;2024-03-06T06:59:51;97392.09;;;5.70;100.00
78170;BME280;67412;49.892;14.490;2024-03-06T07:02:16;97389.56;;;5.78;100.00
78170;BME280;67412;49.892;14.490;2024-03-06T07:04:42;97393.81;;;5.74;100.00
78170;BME280;67412;49.892;14.490;2024-03-06T07:07:07;97394.72;;;5.82;100.00
78170;BME280;67412;49.892;14.490;2024-03-06T07:09:33;97399.81;;;5.81;100.00
78170;BME280;67412;49.892;14.490;2024-03-06T07:11:59;97393.94;;;5.90;100.00
78170;BME280;67412;49.892;14.490;2024-03-06T07:14:24;97401.63;;;5.97;100.00
78170;BME280;67412;49.892;14.490;2024-03-06T07:16:49;97400.78;;;6.00;100.00
78170;BME280;67412;49.892;14.490;2024-03-06T07:19:15;97408.44;;;6.00;100.00
78170;BME280;67412;49.892;14.490;2024-03-06T07:21:40;97405.88;;;6.01;100.00
78170;BME280;67412;49.892;14.490;2024-03-06T07:24:05;97411.84;;;6.05;100.00
78170;BME280;67412;49.892;14.490;2024-03-06T07:26:34;97415.25;;;6.08;100.00
78170;BME280;67412;49.892;14.490;2024-03-06T07:29:00;97415.31;;;6.16;100.00
78170;BME280;67412;49.892;14.490;2024-03-06T07:31:26;97417.84;;;6.16;100.00
78170;BME280;67412;49.892;14.490;2024-03-06T07:33:51;97419.59;;;6.21;100.00
78170;BME280;67412;49.892;14.490;2024-03-06T07:36:17;97421.31;;;6.27;100.00
78170;BME280;67412;49.892;14.490;2024-03-06T07:38:43;97418.75;;;6.25;100.00
78170;BME280;67412;49.892;14.490;2024-03-06T07:41:08;97417.94;;;6.32;100.00
78170;BME280;67412;49.892;14.490;2024-03-06T07:43:35;97429.78;;;6.20;100.00
78170;BME280;67412;49.892;14.490;2024-03-06T07:46:00;97430.59;;;6.16;100.00
78170;BME280;67412;49.892;14.490;2024-03-06T07:48:25;97431.50;;;6.21;100.00
78170;BME280;67412;49.892;14.490;2024-03-06T07:50:51;97436.47;;;6.01;100.00
78170;BME280;67412;49.892;14.490;2024-03-06T07:53:16;97431.34;;;5.97;100.00
78170;BME280;67412;49.892;14.490;2024-03-06T07:55:42;97437.28;;;5.94;100.00
78170;BME280;67412;49.892;14.490;2024-03-06T07:58:07;97447.47;;;5.90;100.00
78170;BME280;67412;49.892;14.490;2024-03-06T08:00:34;97443.13;;;5.79;100.00
78170;BME280;67412;49.892;14.490;2024-03-06T08:02:59;97441.41;;;5.78;100.00
78170;BME280;67412;49.892;14.490;2024-03-06T08:05:26;97446.47;;;5.69;100.00
78170;BME280;67412;49.892;14.490;2024-03-06T08:07:51;97448.16;;;5.69;100.00
78170;BME280;67412;49.892;14.490;2024-03-06T08:10:16;97456.66;;;5.69;100.00
78170;BME280;67412;49.892;14.490;2024-03-06T08:12:44;97445.59;;;5.67;100.00
78170;BME280;67412;49.892;14.490;2024-03-06T08:15:11;97454.13;;;5.72;100.00
78170;BME280;67412;49.892;14.490;2024-03-06T08:17:38;97453.28;;;5.78;100.00
78170;BME280;67412;49.892;14.490;2024-03-06T08:20:04;97458.41;;;5.79;100.00
78170;BME280;67412;49.892;14.490;2024-03-06T08:22:36;97457.59;;;5.83;100.00
78170;BME280;67412;49.892;14.490;2024-03-06T08:27:30;97466.03;;;5.78;100.00
78170;BME280;67412;49.892;14.490;2024-03-06T08:29:55;97467.72;;;5.74;100.00
78170;BME280;67412;49.892;14.490;2024-03-06T08:32:20;97463.53;;;5.82;100.00
78170;BME280;67412;49.892;14.490;2024-03-06T08:34:45;97465.22;;;5.80;100.00
78170;BME280;67412;49.892;14.490;2024-03-06T08:37:11;97471.13;;;5.73;100.00
78170;BME280;67412;49.892;14.490;2024-03-06T08:39:39;97469.47;;;5.81;100.00
78170;BME280;67412;49.892;14.490;2024-03-06T08:42:05;97473.69;;;5.76;100.00
78170;BME280;67412;49.892;14.490;2024-03-06T08:44:30;97470.31;;;5.80;100.00
78170;BME280;67412;49.892;14.490;2024-03-06T08:46:55;97473.66;;;5.72;100.00
78170;BME280;67412;49.892;14.490;2024-03-06T08:49:21;97470.22;;;5.70;100.00
78170;BME280;67412;49.892;14.490;2024-03-06T08:51:46;97469.41;;;5.74;100.00
78170;BME280;67412;49.892;14.490;2024-03-06T08:54:11;97476.28;;;5.81;100.00
78170;BME280;67412;49.892;14.490;2024-03-06T08:56:37;97478.91;;;5.90;100.00
78170;BME280;67412;49.892;14.490;2024-03-06T08:59:02;97478.97;;;5.98;100.00
78170;BME280;67412;49.892;14.490;2024-03-06T09:01:27;97481.53;;;6.04;100.00
78170;BME280;67412;49.892;14.490;2024-03-06T09:03:53;97474.78;;;6.09;100.00
78170;BME280;67412;49.892;14.490;2024-03-06T09:06:18;97468.91;;;6.22;100.00
78170;BME280;67412;49.892;14.490;2024-03-06T09:08:43;97474.97;;;6.41;100.00
78170;BME280;67412;49.892;14.490;2024-03-06T09:11:09;97468.28;;;6.74;100.00
78170;BME280;67412;49.892;14.490;2024-03-06T09:13:34;97474.25;;;6.90;100.00
78170;BME280;67412;49.892;14.490;2024-03-06T09:15:59;97465.72;;;6.77;100.00
78170;BME280;67412;49.892;14.490;2024-03-06T09:18:25;97468.31;;;6.82;100.00
78170;BME280;67412;49.892;14.490;2024-03-06T09:20:51;97469.16;;;6.89;100.00
78170;BME280;67412;49.892;14.490;2024-03-06T09:23:16;97471.72;;;6.89;100.00
78170;BME280;67412;49.892;14.490;2024-03-06T09:25:41;97472.63;;;7.21;100.00
78170;BME280;67412;49.892;14.490;2024-03-06T09:28:08;97475.19;;;7.36;100.00
78170;BME280;67412;49.892;14.490;2024-03-06T09:30:34;97471.78;;;7.25;100.00
78170;BME280;67412;49.892;14.490;2024-03-06T09:32:59;97479.47;;;7.46;100.00
78170;BME280;67412;49.892;14.490;2024-03-06T09:35:24;97485.41;;;7.33;100.00
78170;BME280;67412;49.892;14.490;2024-03-06T09:37:50;97481.19;;;7.41;100.00
78170;BME280;67412;49.892;14.490;2024-03-06T09:40:22;97479.47;;;7.46;100.00
78170;BME280;67412;49.892;14.490;2024-03-06T09:42:49;97476.91;;;7.52;100.00
78170;BME280;67412;49.892;14.490;2024-03-06T09:45:15;97474.34;;;7.66;100.00
78170;BME280;67412;49.892;14.490;2024-03-06T09:47:40;97479.44;;;7.84;100.00
78170;BME280;67412;49.892;14.490;2024-03-06T09:50:09;97487.13;;;7.55;100.00
78170;BME280;67412;49.892;14.490;2024-03-06T09:52:34;97480.31;;;7.72;100.00
78170;BME280;67412;49.892;14.490;2024-03-06T09:55:01;97484.59;;;7.55;100.00
78170;BME280;67412;49.892;14.490;2024-03-06T09:57:27;97481.19;;;7.53;100.00
78170;BME280;67412;49.892;14.490;2024-03-06T09:59:53;97483.72;;;7.44;100.00
78170;BME280;67412;49.892;14.490;2024-03-06T10:04:55;97487.97;;;7.33;100.00
78170;BME280;67412;49.892;14.490;2024-03-06T10:07:21;97488.84;;;7.64;100.00
78170;BME280;67412;49.892;14.490;2024-03-06T10:09:47;97494.81;;;7.67;100.00
78170;BME280;67412;49.892;14.490;2024-03-06T10:12:13;97488.00;;;7.82;100.00
78170;BME280;67412;49.892;14.490;2024-03-06T10:14:51;97488.81;;;8.00;100.00
78170;BME280;67412;49.892;14.490;2024-03-06T10:17:22;97486.22;;;8.31;100.00
78170;BME280;67412;49.892;14.490;2024-03-06T10:19:52;97493.03;;;8.38;100.00
78170;BME280;67412;49.892;14.490;2024-03-06T10:22:18;97491.34;;;8.35;100.00
78170;BME280;67412;49.892;14.490;2024-03-06T10:24:45;97495.63;;;8.10;100.00
78170;BME280;67412;49.892;14.490;2024-03-06T10:27:15;97491.41;;;7.94;100.00
78170;BME280;67412;49.892;14.490;2024-03-06T10:29:42;97494.78;;;7.96;100.00
78170;BME280;67412;49.892;14.490;2024-03-06T10:32:07;97499.88;;;8.07;100.00
78170;BME280;67412;49.892;14.490;2024-03-06T10:34:33;97497.38;;;7.83;100.00
78170;BME280;67412;49.892;14.490;2024-03-06T10:37:01;97496.50;;;7.82;100.00
78170;BME280;67412;49.892;14.490;2024-03-06T10:39:27;97497.38;;;7.78;100.00
78170;BME280;67412;49.892;14.490;2024-03-06T10:41:55;97498.22;;;7.72;100.00
78170;BME280;67412;49.892;14.490;2024-03-06T10:44:22;97494.81;;;7.81;100.00
78170;BME280;67412;49.892;14.490;2024-03-06T10:47:01;97492.19;;;8.23;100.00
78170;BME280;67412;49.892;14.490;2024-03-06T10:49:28;97489.56;;;8.61;100.00
78170;BME280;67412;49.892;14.490;2024-03-06T10:51:58;97486.06;;;8.81;100.00
78170;BME280;67412;49.892;14.490;2024-03-06T10:54:28;97492.16;;;8.40;100.00
78170;BME280;67412;49.892;14.490;2024-03-06T10:56:55;97489.63;;;8.23;100.00
78170;BME280;67412;49.892;14.490;2024-03-06T10:59:24;97491.38;;;7.99;100.00
78170;BME280;67412;49.892;14.490;2024-03-06T11:01:51;97498.22;;;7.78;100.00
78170;BME280;67412;49.892;14.490;2024-03-06T11:04:17;97494.78;;;8.07;100.00
78170;BME280;67412;49.892;14.490;2024-03-06T11:06:42;97489.66;;;8.16;100.00
78170;BME280;67412;49.892;14.490;2024-03-06T11:09:08;97484.53;;;8.30;100.00
78170;BME280;67412;49.892;14.490;2024-03-06T11:11:48;97489.63;;;8.26;100.00
78170;BME280;67412;49.892;14.490;2024-03-06T11:14:14;97492.19;;;8.17;100.00
78170;BME280;67412;49.892;14.490;2024-03-06T11:17:10;97477.72;;;8.04;100.00
78170;BME280;67412;49.892;14.490;2024-03-06T11:28:16;97488.84;;;7.44;100.00
78170;BME280;67412;49.892;14.490;2024-03-06T11:30:54;97482.88;;;7.48;100.00
78170;BME280;67412;49.892;14.490;2024-03-06T11:33:20;97490.53;;;7.54;100.00
78170;BME280;67412;49.892;14.490;2024-03-06T11:41:19;97482.88;;;7.94;100.00
78170;BME280;67412;49.892;14.490;2024-03-06T11:43:45;97481.13;;;8.08;100.00
78170;BME280;67412;49.892;14.490;2024-03-06T11:46:11;97488.78;;;8.27;100.00
78170;BME280;67412;49.892;14.490;2024-03-06T11:48:37;97481.97;;;8.36;100.00
78170;BME280;67412;49.892;14.490;2024-03-06T11:51:03;97480.25;;;8.30;100.00
78170;BME280;67412;49.892;14.490;2024-03-06T11:53:30;97478.59;;;8.05;100.00
78170;BME280;67412;49.892;14.490;2024-03-06T11:55:55;97477.75;;;7.80;100.00
78170;BME280;67412;49.892;14.490;2024-03-06T11:58:24;97478.63;;;7.76;100.00
78170;BME280;67412;49.892;14.490;2024-03-06T12:00:51;97484.59;;;7.80;100.00
78170;BME280;67412;49.892;14.490;2024-03-06T12:03:17;97479.47;;;7.83;100.00
78170;BME280;67412;49.892;14.490;2024-03-06T12:05:44;97479.47;;;7.80;100.00
78170;BME280;67412;49.892;14.490;2024-03-06T12:08:09;97482.88;;;7.77;100.00
78170;BME280;67412;49.892;14.490;2024-03-06T12:10:38;97483.75;;;7.64;100.00
78170;BME280;67412;49.892;14.490;2024-03-06T12:13:04;97481.19;;;7.68;100.00
78170;BME280;67412;49.892;14.490;2024-03-06T12:15:30;97480.31;;;7.54;100.00
78170;BME280;67412;49.892;14.490;2024-03-06T12:17:55;97476.06;;;7.53;100.00
78170;BME280;67412;49.892;14.490;2024-03-06T12:20:21;97480.31;;;7.54;100.00
78170;BME280;67412;49.892;14.490;2024-03-06T12:25:23;97476.91;;;7.63;100.00
78170;BME280;67412;49.892;14.490;2024-03-06T12:27:49;97478.63;;;7.68;100.00
78170;BME280;67412;49.892;14.490;2024-03-06T12:30:19;97478.63;;;7.74;100.00
78170;BME280;67412;49.892;14.490;2024-03-06T12:32:59;97479.47;;;7.67;100.00
78170;BME280;67412;49.892;14.490;2024-03-06T12:35:25;97469.25;;;7.64;100.00
78170;BME280;67412;49.892;14.490;2024-03-06T12:37:51;97473.50;;;7.71;100.00
78170;BME280;67412;49.892;14.490;2024-03-06T12:40:16;97476.91;;;7.75;100.00
78170;BME280;67412;49.892;14.490;2024-03-06T12:42:42;97469.25;;;7.80;100.00
78170;BME280;67412;49.892;14.490;2024-03-06T12:45:08;97469.25;;;7.67;100.00
78170;BME280;67412;49.892;14.490;2024-03-06T12:47:35;97461.56;;;7.69;100.00
78170;BME280;67412;49.892;14.490;2024-03-06T12:50:00;97468.38;;;7.70;100.00
78170;BME280;67412;49.892;14.490;2024-03-06T12:52:26;97472.63;;;7.77;100.00
78170;BME280;67412;49.892;14.490;2024-03-06T12:54:51;97468.38;;;7.85;100.00
78170;BME280;67412;49.892;14.490;2024-03-06T12:57:16;97472.63;;;7.88;100.00
78170;BME280;67412;49.892;14.490;2024-03-06T12:59:43;97470.94;;;7.87;100.00
78170;BME280;67412;49.892;14.490;2024-03-06T13:02:08;97472.66;;;7.83;100.00
78170;BME280;67412;49.892;14.490;2024-03-06T13:04:33;97468.38;;;7.85;100.00
78170;BME280;67412;49.892;14.490;2024-03-06T13:06:59;97473.41;;;8.40;100.00